sensor_id;sensor_type;location;lat;lon;timestamp;pressure;altitude;pressure_sealevel;temperature;humidity
34205;BME280;20471;49.680;20.074;2023-03-01T00:01:16;98321.00;;;-3.93;65.97
34205;BME280;20471;49.680;20.074;2023-03-01T00:03:44;98324.38;;;-3.94;66.03
34205;BME280;20471;49.680;20.074;2023-03-01T00:06:12;98327.58;;;-3.94;66.01
34205;BME280;20471;49.680;20.074;2023-03-01T00:08:41;98327.48;;;-3.95;66.17
34205;BME280;20471;49.680;20.074;2023-03-01T00:13:47;98329.42;;;-3.96;66.29
34205;BME280;20471;49.680;20.074;2023-03-01T00:16:19;98326.41;;;-3.95;66.40
34205;BME280;20471;49.680;20.074;2023-03-01T00:18:47;98322.31;;;-3.97;66.30
34205;BME280;20471;49.680;20.074;2023-03-01T00:21:16;98324.35;;;-3.98;66.27
34205;BME280;20471;49.680;20.074;2023-03-01T00:23:44;98323.84;;;-4.02;66.42
34205;BME280;20471;49.680;20.074;2023-03-01T00:26:13;98321.09;;;-4.03;66.62
34205;BME280;20471;49.680;20.074;2023-03-01T00:28:41;98319.85;;;-4.06;66.41
34205;BME280;20471;49.680;20.074;2023-03-01T00:31:11;98316.73;;;-4.12;66.57
34205;BME280;20471;49.680;20.074;2023-03-01T00:33:39;98315.27;;;-4.19;66.64
34205;BME280;20471;49.680;20.074;2023-03-01T00:36:08;98310.45;;;-4.26;66.67
34205;BME280;20471;49.680;20.074;2023-03-01T00:38:40;98313.16;;;-4.27;66.83
34205;BME280;20471;49.680;20.074;2023-03-01T00:41:10;98312.92;;;-4.29;66.85
34205;BME280;20471;49.680;20.074;2023-03-01T00:43:38;98310.73;;;-4.30;66.89
34205;BME280;20471;49.680;20.074;2023-03-01T00:46:07;98306.59;;;-4.34;66.92
34205;BME280;20471;49.680;20.074;2023-03-01T00:48:36;98301.02;;;-4.38;67.08
34205;BME280;20471;49.680;20.074;2023-03-01T00:51:12;98298.04;;;-4.43;67.02
34205;BME280;20471;49.680;20.074;2023-03-01T00:53:40;98298.70;;;-4.48;66.99
34205;BME280;20471;49.680;20.074;2023-03-01T00:56:09;98297.29;;;-4.48;67.09
34205;BME280;20471;49.680;20.074;2023-03-01T00:58:38;98299.23;;;-4.48;67.07
34205;BME280;20471;49.680;20.074;2023-03-01T01:01:17;98295.95;;;-4.49;67.07
34205;BME280;20471;49.680;20.074;2023-03-01T01:03:56;98292.50;;;-4.50;66.99
34205;BME280;20471;49.680;20.074;2023-03-01T01:06:27;98296.02;;;-4.50;67.08
34205;BME280;20471;49.680;20.074;2023-03-01T01:08:56;98294.97;;;-4.50;67.19
34205;BME280;20471;49.680;20.074;2023-03-01T01:11:24;98299.19;;;-4.50;67.10
34205;BME280;20471;49.680;20.074;2023-03-01T01:13:53;98298.95;;;-4.52;67.07
34205;BME280;20471;49.680;20.074;2023-03-01T01:16:22;98300.25;;;-4.56;67.04
34205;BME280;20471;49.680;20.074;2023-03-01T01:18:50;98301.02;;;-4.60;66.95
34205;BME280;20471;49.680;20.074;2023-03-01T01:21:20;98297.15;;;-4.62;67.14
34205;BME280;20471;49.680;20.074;2023-03-01T01:23:49;98293.12;;;-4.65;67.19
34205;BME280;20471;49.680;20.074;2023-03-01T01:26:27;98291.95;;;-4.66;67.23
34205;BME280;20471;49.680;20.074;2023-03-01T01:28:56;98290.95;;;-4.67;67.26
34205;BME280;20471;49.680;20.074;2023-03-01T01:31:25;98288.45;;;-4.70;67.33
34205;BME280;20471;49.680;20.074;2023-03-01T01:33:53;98292.20;;;-4.74;67.27
34205;BME280;20471;49.680;20.074;2023-03-01T01:36:21;98292.17;;;-4.76;67.21
34205;BME280;20471;49.680;20.074;2023-03-01T01:38:50;98288.06;;;-4.78;67.34
34205;BME280;20471;49.680;20.074;2023-03-01T01:41:18;98284.15;;;-4.80;67.44
34205;BME280;20471;49.680;20.074;2023-03-01T01:43:48;98283.89;;;-4.84;67.34
34205;BME280;20471;49.680;20.074;2023-03-01T01:51:28;98266.84;;;-4.84;67.63
34205;BME280;20471;49.680;20.074;2023-03-01T01:54:25;98262.35;;;-4.85;67.67
34205;BME280;20471;49.680;20.074;2023-03-01T01:56:56;98258.85;;;-4.85;67.71
34205;BME280;20471;49.680;20.074;2023-03-01T01:59:26;98256.23;;;-4.85;67.62
34205;BME280;20471;49.680;20.074;2023-03-01T02:01:55;98256.21;;;-4.85;67.82
34205;BME280;20471;49.680;20.074;2023-03-01T02:04:25;98254.83;;;-4.85;67.76
34205;BME280;20471;49.680;20.074;2023-03-01T02:07:01;98251.84;;;-4.85;67.81
34205;BME280;20471;49.680;20.074;2023-03-01T02:09:32;98248.39;;;-4.86;67.80
34205;BME280;20471;49.680;20.074;2023-03-01T02:12:01;98246.05;;;-4.88;67.86
34205;BME280;20471;49.680;20.074;2023-03-01T02:14:29;98246.48;;;-4.89;67.91
34205;BME280;20471;49.680;20.074;2023-03-01T02:16:57;98246.42;;;-4.91;67.97
34205;BME280;20471;49.680;20.074;2023-03-01T02:19:39;98245.33;;;-4.93;67.93
34205;BME280;20471;49.680;20.074;2023-03-01T02:22:21;98251.02;;;-4.95;67.95
34205;BME280;20471;49.680;20.074;2023-03-01T02:27:18;98260.08;;;-5.05;67.88
34205;BME280;20471;49.680;20.074;2023-03-01T02:29:50;98254.60;;;-5.10;68.04
34205;BME280;20471;49.680;20.074;2023-03-01T02:32:18;98249.93;;;-5.14;67.98
34205;BME280;20471;49.680;20.074;2023-03-01T02:34:52;98249.20;;;-5.16;68.09
34205;BME280;20471;49.680;20.074;2023-03-01T02:37:21;98246.37;;;-5.16;68.13
34205;BME280;20471;49.680;20.074;2023-03-01T02:39:59;98243.33;;;-5.15;68.29
34205;BME280;20471;49.680;20.074;2023-03-01T02:42:31;98242.50;;;-5.16;68.15
34205;BME280;20471;49.680;20.074;2023-03-01T02:45:00;98244.27;;;-5.16;68.17
34205;BME280;20471;49.680;20.074;2023-03-01T02:47:28;98244.55;;;-5.15;68.16
34205;BME280;20471;49.680;20.074;2023-03-01T02:49:56;98242.04;;;-5.17;68.29
34205;BME280;20471;49.680;20.074;2023-03-01T02:55:21;98244.09;;;-5.16;68.27
34205;BME280;20471;49.680;20.074;2023-03-01T02:57:49;98248.44;;;-5.15;68.20
34205;BME280;20471;49.680;20.074;2023-03-01T03:00:18;98244.04;;;-5.18;68.13
34205;BME280;20471;49.680;20.074;2023-03-01T03:02:49;98248.35;;;-5.22;68.15
34205;BME280;20471;49.680;20.074;2023-03-01T03:05:27;98250.13;;;-5.25;68.19
34205;BME280;20471;49.680;20.074;2023-03-01T03:07:55;98251.88;;;-5.31;68.16
34205;BME280;20471;49.680;20.074;2023-03-01T03:10:24;98252.00;;;-5.38;68.14
34205;BME280;20471;49.680;20.074;2023-03-01T03:12:54;98260.41;;;-5.42;68.19
34205;BME280;20471;49.680;20.074;2023-03-01T03:15:23;98259.91;;;-5.42;68.38
34205;BME280;20471;49.680;20.074;2023-03-01T03:17:52;98255.41;;;-5.43;68.38
34205;BME280;20471;49.680;20.074;2023-03-01T03:20:22;98250.17;;;-5.47;68.52
34205;BME280;20471;49.680;20.074;2023-03-01T03:22:52;98251.20;;;-5.49;68.57
34205;BME280;20471;49.680;20.074;2023-03-01T03:25:21;98253.05;;;-5.48;68.49
34205;BME280;20471;49.680;20.074;2023-03-01T03:27:49;98251.95;;;-5.47;68.53
34205;BME280;20471;49.680;20.074;2023-03-01T03:30:24;98249.40;;;-5.51;68.55
34205;BME280;20471;49.680;20.074;2023-03-01T03:32:53;98250.02;;;-5.53;68.60
34205;BME280;20471;49.680;20.074;2023-03-01T03:35:25;98245.33;;;-5.54;68.74
34205;BME280;20471;49.680;20.074;2023-03-01T03:37:55;98239.88;;;-5.59;68.59
34205;BME280;20471;49.680;20.074;2023-03-01T03:40:31;98247.06;;;-5.62;68.57
34205;BME280;20471;49.680;20.074;2023-03-01T03:42:59;98247.66;;;-5.60;68.67
34205;BME280;20471;49.680;20.074;2023-03-01T03:45:28;98251.82;;;-5.59;68.55
34205;BME280;20471;49.680;20.074;2023-03-01T03:47:56;98254.99;;;-5.59;68.57
34205;BME280;20471;49.680;20.074;2023-03-01T03:50:24;98255.50;;;-5.59;68.53
34205;BME280;20471;49.680;20.074;2023-03-01T03:52:52;98254.98;;;-5.63;68.52
34205;BME280;20471;49.680;20.074;2023-03-01T03:55:20;98255.89;;;-5.66;68.55
34205;BME280;20471;49.680;20.074;2023-03-01T03:57:48;98258.61;;;-5.67;68.70
34205;BME280;20471;49.680;20.074;2023-03-01T04:00:19;98256.11;;;-5.69;68.83
34205;BME280;20471;49.680;20.074;2023-03-01T04:02:47;98257.05;;;-5.70;68.81
34205;BME280;20471;49.680;20.074;2023-03-01T04:05:17;98254.68;;;-5.69;68.80
34205;BME280;20471;49.680;20.074;2023-03-01T04:07:45;98252.02;;;-5.68;68.83
34205;BME280;20471;49.680;20.074;2023-03-01T04:10:14;98246.94;;;-5.68;68.88
34205;BME280;20471;49.680;20.074;2023-03-01T04:12:43;98246.44;;;-5.69;68.87
34205;BME280;20471;49.680;20.074;2023-03-01T04:15:11;98250.22;;;-5.68;68.87
34205;BME280;20471;49.680;20.074;2023-03-01T04:17:43;98251.23;;;-5.67;68.88
34205;BME280;20471;49.680;20.074;2023-03-01T04:20:13;98251.95;;;-5.67;68.86
34205;BME280;20471;49.680;20.074;2023-03-01T04:22:43;98252.55;;;-5.69;68.80
34205;BME280;20471;49.680;20.074;2023-03-01T04:25:13;98241.59;;;-5.67;68.66
34205;BME280;20471;49.680;20.074;2023-03-01T04:27:42;98234.73;;;-5.67;68.58
34205;BME280;20471;49.680;20.074;2023-03-01T04:30:10;98231.36;;;-5.66;68.72
34205;BME280;20471;49.680;20.074;2023-03-01T04:32:38;98235.95;;;-5.67;68.62
34205;BME280;20471;49.680;20.074;2023-03-01T04:35:06;98240.66;;;-5.67;68.61
34205;BME280;20471;49.680;20.074;2023-03-01T04:37:34;98245.15;;;-5.68;68.58
34205;BME280;20471;49.680;20.074;2023-03-01T04:40:02;98248.21;;;-5.69;68.81
34205;BME280;20471;49.680;20.074;2023-03-01T04:42:39;98250.35;;;-5.70;68.73
34205;BME280;20471;49.680;20.074;2023-03-01T04:45:07;98261.40;;;-5.70;68.64
34205;BME280;20471;49.680;20.074;2023-03-01T04:47:40;98263.55;;;-5.71;68.61
34205;BME280;20471;49.680;20.074;2023-03-01T04:50:09;98262.11;;;-5.73;68.68
34205;BME280;20471;49.680;20.074;2023-03-01T04:52:38;98263.77;;;-5.78;68.80
34205;BME280;20471;49.680;20.074;2023-03-01T04:55:06;98263.30;;;-5.81;68.83
34205;BME280;20471;49.680;20.074;2023-03-01T04:57:34;98259.08;;;-5.84;68.85
34205;BME280;20471;49.680;20.074;2023-03-01T05:00:03;98251.64;;;-5.89;68.93
34205;BME280;20471;49.680;20.074;2023-03-01T05:02:56;98252.26;;;-5.90;69.03
34205;BME280;20471;49.680;20.074;2023-03-01T05:05:30;98251.92;;;-5.93;68.84
34205;BME280;20471;49.680;20.074;2023-03-01T05:08:00;98251.95;;;-5.96;69.02
34205;BME280;20471;49.680;20.074;2023-03-01T05:10:29;98248.66;;;-5.97;69.12
34205;BME280;20471;49.680;20.074;2023-03-01T05:12:58;98246.83;;;-5.99;69.05
34205;BME280;20471;49.680;20.074;2023-03-01T05:15:28;98243.49;;;-6.05;69.06
34205;BME280;20471;49.680;20.074;2023-03-01T05:17:56;98238.90;;;-6.10;69.07
34205;BME280;20471;49.680;20.074;2023-03-01T05:20:29;98244.63;;;-6.12;69.25
34205;BME280;20471;49.680;20.074;2023-03-01T05:22:58;98243.20;;;-6.12;69.26
34205;BME280;20471;49.680;20.074;2023-03-01T05:25:26;98239.09;;;-6.10;69.45
34205;BME280;20471;49.680;20.074;2023-03-01T05:28:02;98241.76;;;-6.08;69.52
34205;BME280;20471;49.680;20.074;2023-03-01T05:30:32;98243.70;;;-6.05;69.50
34205;BME280;20471;49.680;20.074;2023-03-01T05:33:00;98245.52;;;-6.03;69.51
34205;BME280;20471;49.680;20.074;2023-03-01T05:35:28;98243.52;;;-6.02;69.49
34205;BME280;20471;49.680;20.074;2023-03-01T05:37:59;98241.10;;;-6.00;69.61
34205;BME280;20471;49.680;20.074;2023-03-01T05:40:27;98237.99;;;-5.98;69.55
34205;BME280;20471;49.680;20.074;2023-03-01T05:42:56;98240.70;;;-5.96;69.53
34205;BME280;20471;49.680;20.074;2023-03-01T05:45:24;98238.55;;;-5.95;69.44
34205;BME280;20471;49.680;20.074;2023-03-01T05:47:53;98233.46;;;-5.95;69.61
34205;BME280;20471;49.680;20.074;2023-03-01T05:50:25;98235.13;;;-5.93;69.69
34205;BME280;20471;49.680;20.074;2023-03-01T05:53:06;98233.48;;;-5.92;69.60
34205;BME280;20471;49.680;20.074;2023-03-01T05:55:35;98231.08;;;-5.91;69.67
34205;BME280;20471;49.680;20.074;2023-03-01T05:58:04;98229.98;;;-5.89;69.58
34205;BME280;20471;49.680;20.074;2023-03-01T06:00:33;98226.58;;;-5.89;69.60
34205;BME280;20471;49.680;20.074;2023-03-01T06:03:01;98222.94;;;-5.87;69.55
34205;BME280;20471;49.680;20.074;2023-03-01T06:05:29;98220.20;;;-5.85;69.75
34205;BME280;20471;49.680;20.074;2023-03-01T06:07:58;98217.30;;;-5.83;69.80
34205;BME280;20471;49.680;20.074;2023-03-01T06:10:27;98216.83;;;-5.81;69.68
34205;BME280;20471;49.680;20.074;2023-03-01T06:12:55;98213.09;;;-5.77;69.64
34205;BME280;20471;49.680;20.074;2023-03-01T06:15:24;98211.83;;;-5.74;69.88
34205;BME280;20471;49.680;20.074;2023-03-01T06:17:53;98212.36;;;-5.71;69.90
34205;BME280;20471;49.680;20.074;2023-03-01T06:20:24;98215.80;;;-5.67;70.00
34205;BME280;20471;49.680;20.074;2023-03-01T06:22:52;98219.05;;;-5.63;69.96
34205;BME280;20471;49.680;20.074;2023-03-01T06:25:23;98221.81;;;-5.59;69.95
34205;BME280;20471;49.680;20.074;2023-03-01T06:27:52;98219.84;;;-5.55;69.93
34205;BME280;20471;49.680;20.074;2023-03-01T06:30:20;98226.21;;;-5.51;69.99
34205;BME280;20471;49.680;20.074;2023-03-01T06:32:49;98228.31;;;-5.45;70.03
34205;BME280;20471;49.680;20.074;2023-03-01T06:35:17;98229.11;;;-5.40;70.25
34205;BME280;20471;49.680;20.074;2023-03-01T06:37:46;98229.92;;;-5.36;70.34
34205;BME280;20471;49.680;20.074;2023-03-01T06:40:15;98227.30;;;-5.31;70.36
34205;BME280;20471;49.680;20.074;2023-03-01T06:42:43;98231.84;;;-5.25;70.52
34205;BME280;20471;49.680;20.074;2023-03-01T06:45:15;98237.98;;;-5.19;70.58
34205;BME280;20471;49.680;20.074;2023-03-01T06:47:43;98239.92;;;-5.14;70.49
34205;BME280;20471;49.680;20.074;2023-03-01T06:50:11;98246.67;;;-5.06;70.42
34205;BME280;20471;49.680;20.074;2023-03-01T06:52:40;98245.58;;;-4.97;70.35
34205;BME280;20471;49.680;20.074;2023-03-01T06:55:10;98245.84;;;-4.87;70.33
34205;BME280;20471;49.680;20.074;2023-03-01T06:57:39;98245.98;;;-4.79;70.42
34205;BME280;20471;49.680;20.074;2023-03-01T07:00:07;98244.83;;;-4.68;70.41
34205;BME280;20471;49.680;20.074;2023-03-01T07:02:35;98246.48;;;-4.64;70.34
34205;BME280;20471;49.680;20.074;2023-03-01T07:05:04;98241.39;;;-4.58;70.32
34205;BME280;20471;49.680;20.074;2023-03-01T07:07:32;98242.17;;;-4.54;70.43
34205;BME280;20471;49.680;20.074;2023-03-01T07:10:00;98239.58;;;-4.47;70.43
34205;BME280;20471;49.680;20.074;2023-03-01T07:12:28;98232.19;;;-4.41;70.47
34205;BME280;20471;49.680;20.074;2023-03-01T07:14:56;98232.61;;;-4.37;70.53
34205;BME280;20471;49.680;20.074;2023-03-01T07:17:24;98230.94;;;-4.30;70.56
34205;BME280;20471;49.680;20.074;2023-03-01T07:19:52;98225.70;;;-4.25;70.48
34205;BME280;20471;49.680;20.074;2023-03-01T07:22:20;98223.25;;;-4.18;70.45
34205;BME280;20471;49.680;20.074;2023-03-01T07:24:48;98224.77;;;-4.11;70.32
34205;BME280;20471;49.680;20.074;2023-03-01T07:27:16;98220.51;;;-4.03;70.25
34205;BME280;20471;49.680;20.074;2023-03-01T07:29:44;98217.58;;;-3.93;70.18
34205;BME280;20471;49.680;20.074;2023-03-01T07:32:12;98219.95;;;-3.84;70.26
34205;BME280;20471;49.680;20.074;2023-03-01T07:34:40;98221.43;;;-3.74;70.37
34205;BME280;20471;49.680;20.074;2023-03-01T07:37:08;98220.70;;;-3.66;70.10
34205;BME280;20471;49.680;20.074;2023-03-01T07:39:36;98213.55;;;-3.57;70.03
34205;BME280;20471;49.680;20.074;2023-03-01T07:42:04;98211.59;;;-3.44;70.07
34205;BME280;20471;49.680;20.074;2023-03-01T07:44:32;98205.63;;;-3.29;70.04
34205;BME280;20471;49.680;20.074;2023-03-01T07:47:01;98198.75;;;-3.11;70.00
34205;BME280;20471;49.680;20.074;2023-03-01T07:49:29;98201.97;;;-2.94;70.08
34205;BME280;20471;49.680;20.074;2023-03-01T07:51:57;98203.10;;;-2.80;69.87
34205;BME280;20471;49.680;20.074;2023-03-01T07:54:25;98199.38;;;-2.68;69.71
34205;BME280;20471;49.680;20.074;2023-03-01T07:56:53;98188.16;;;-2.54;69.65
34205;BME280;20471;49.680;20.074;2023-03-01T07:59:22;98182.09;;;-2.38;69.57
34205;BME280;20471;49.680;20.074;2023-03-01T08:01:55;98180.01;;;-2.20;69.39
34205;BME280;20471;49.680;20.074;2023-03-01T08:04:23;98176.71;;;-2.02;69.37
34205;BME280;20471;49.680;20.074;2023-03-01T08:06:53;98171.13;;;-1.86;69.20
34205;BME280;20471;49.680;20.074;2023-03-01T08:09:22;98165.58;;;-1.66;69.10
34205;BME280;20471;49.680;20.074;2023-03-01T08:11:50;98162.65;;;-1.47;68.76
34205;BME280;20471;49.680;20.074;2023-03-01T08:14:18;98159.39;;;-1.23;68.86
34205;BME280;20471;49.680;20.074;2023-03-01T08:16:48;98160.46;;;-0.94;68.68
34205;BME280;20471;49.680;20.074;2023-03-01T08:19:16;98155.43;;;-0.63;68.48
34205;BME280;20471;49.680;20.074;2023-03-01T08:21:44;98153.60;;;-0.32;68.22
34205;BME280;20471;49.680;20.074;2023-03-01T08:24:12;98144.70;;;0.01;67.89
34205;BME280;20471;49.680;20.074;2023-03-01T08:26:40;98139.34;;;0.33;67.64
34205;BME280;20471;49.680;20.074;2023-03-01T08:29:08;98140.02;;;0.60;66.97
34205;BME280;20471;49.680;20.074;2023-03-01T08:31:37;98149.61;;;0.82;66.54
34205;BME280;20471;49.680;20.074;2023-03-01T08:34:07;98142.55;;;1.08;66.11
34205;BME280;20471;49.680;20.074;2023-03-01T08:36:36;98140.77;;;1.30;65.78
34205;BME280;20471;49.680;20.074;2023-03-01T08:39:05;98136.91;;;1.50;65.13
34205;BME280;20471;49.680;20.074;2023-03-01T08:41:33;98129.41;;;1.70;64.87
34205;BME280;20471;49.680;20.074;2023-03-01T08:44:02;98128.62;;;1.96;64.72
34205;BME280;20471;49.680;20.074;2023-03-01T08:46:31;98129.27;;;2.19;64.37
34205;BME280;20471;49.680;20.074;2023-03-01T08:49:00;98127.55;;;2.45;64.08
34205;BME280;20471;49.680;20.074;2023-03-01T08:51:30;98123.20;;;2.65;63.58
34205;BME280;20471;49.680;20.074;2023-03-01T08:54:06;98122.33;;;2.84;63.04
34205;BME280;20471;49.680;20.074;2023-03-01T08:56:35;98121.89;;;2.98;62.38
34205;BME280;20471;49.680;20.074;2023-03-01T08:59:03;98122.89;;;3.13;62.46
34205;BME280;20471;49.680;20.074;2023-03-01T09:01:31;98122.70;;;3.39;62.55
34205;BME280;20471;49.680;20.074;2023-03-01T09:03:59;98125.58;;;3.62;61.77
34205;BME280;20471;49.680;20.074;2023-03-01T09:06:29;98129.48;;;3.78;61.32
34205;BME280;20471;49.680;20.074;2023-03-01T09:08:58;98126.48;;;3.94;60.20
34205;BME280;20471;49.680;20.074;2023-03-01T09:11:27;98120.75;;;4.12;60.40
34205;BME280;20471;49.680;20.074;2023-03-01T09:13:55;98105.96;;;4.42;60.16
34205;BME280;20471;49.680;20.074;2023-03-01T09:16:23;98101.93;;;4.71;59.53
34205;BME280;20471;49.680;20.074;2023-03-01T09:18:52;98098.23;;;5.01;59.39
34205;BME280;20471;49.680;20.074;2023-03-01T09:21:22;98094.64;;;5.30;59.03
34205;BME280;20471;49.680;20.074;2023-03-01T09:23:50;98091.76;;;5.62;58.22
34205;BME280;20471;49.680;20.074;2023-03-01T09:26:19;98091.52;;;5.84;57.73
34205;BME280;20471;49.680;20.074;2023-03-01T09:28:50;98088.83;;;6.17;57.52
34205;BME280;20471;49.680;20.074;2023-03-01T09:31:19;98088.28;;;6.57;56.82
34205;BME280;20471;49.680;20.074;2023-03-01T09:33:48;98089.81;;;6.84;55.67
34205;BME280;20471;49.680;20.074;2023-03-01T09:36:17;98094.36;;;7.09;55.08
34205;BME280;20471;49.680;20.074;2023-03-01T09:38:46;98094.64;;;7.15;54.13
34205;BME280;20471;49.680;20.074;2023-03-01T09:41:22;98094.71;;;7.35;54.31
34205;BME280;20471;49.680;20.074;2023-03-01T09:43:56;98098.48;;;7.74;53.61
34205;BME280;20471;49.680;20.074;2023-03-01T09:46:27;98091.13;;;8.05;52.95
34205;BME280;20471;49.680;20.074;2023-03-01T09:48:55;98090.08;;;8.27;52.50
34205;BME280;20471;49.680;20.074;2023-03-01T09:51:26;98093.95;;;8.48;51.72
34205;BME280;20471;49.680;20.074;2023-03-01T09:53:57;98092.31;;;8.68;50.91
34205;BME280;20471;49.680;20.074;2023-03-01T09:56:32;98092.52;;;8.77;50.21
34205;BME280;20471;49.680;20.074;2023-03-01T09:59:38;98087.03;;;8.82;49.57
34205;BME280;20471;49.680;20.074;2023-03-01T10:02:13;98081.27;;;8.89;49.62
34205;BME280;20471;49.680;20.074;2023-03-01T10:04:48;98076.55;;;9.09;49.60
34205;BME280;20471;49.680;20.074;2023-03-01T10:09:45;98074.19;;;8.81;48.12
34205;BME280;20471;49.680;20.074;2023-03-01T10:12:26;98071.09;;;8.92;48.86
34205;BME280;20471;49.680;20.074;2023-03-01T10:17:34;98071.52;;;9.38;48.22
34205;BME280;20471;49.680;20.074;2023-03-01T10:22:47;98072.54;;;9.85;48.13
34205;BME280;20471;49.680;20.074;2023-03-01T10:25:30;98070.75;;;9.78;46.90
34205;BME280;20471;49.680;20.074;2023-03-01T10:28:40;98065.71;;;9.80;47.20
34205;BME280;20471;49.680;20.074;2023-03-01T10:30:55;98061.82;;;9.99;47.22
34205;BME280;20471;49.680;20.074;2023-03-01T10:33:28;98058.92;;;10.18;47.00
34205;BME280;20471;49.680;20.074;2023-03-01T10:35:57;98056.38;;;10.29;47.20
34205;BME280;20471;49.680;20.074;2023-03-01T10:38:26;98050.46;;;10.50;47.10
34205;BME280;20471;49.680;20.074;2023-03-01T10:40:59;98046.74;;;10.75;46.23
34205;BME280;20471;49.680;20.074;2023-03-01T10:43:31;98045.79;;;10.75;45.55
34205;BME280;20471;49.680;20.074;2023-03-01T10:51:38;98034.89;;;10.98;44.92
34205;BME280;20471;49.680;20.074;2023-03-01T10:56:53;98026.88;;;10.85;43.86
34205;BME280;20471;49.680;20.074;2023-03-01T10:59:25;98021.29;;;10.76;44.61
34205;BME280;20471;49.680;20.074;2023-03-01T11:04:31;98016.77;;;11.31;44.17
34205;BME280;20471;49.680;20.074;2023-03-01T11:06:59;98016.31;;;11.50;44.34
34205;BME280;20471;49.680;20.074;2023-03-01T11:09:32;98011.18;;;11.78;43.93
34205;BME280;20471;49.680;20.074;2023-03-01T11:12:05;98006.00;;;12.06;43.67
34205;BME280;20471;49.680;20.074;2023-03-01T11:14:36;98005.27;;;12.37;43.52
34205;BME280;20471;49.680;20.074;2023-03-01T11:19:59;98000.05;;;12.52;41.23
34205;BME280;20471;49.680;20.074;2023-03-01T11:22:27;97996.99;;;12.42;41.88
34205;BME280;20471;49.680;20.074;2023-03-01T11:24:55;97993.94;;;12.61;42.00
34205;BME280;20471;49.680;20.074;2023-03-01T11:27:25;97987.66;;;12.81;41.80
34205;BME280;20471;49.680;20.074;2023-03-01T11:29:58;97980.63;;;13.10;41.35
34205;BME280;20471;49.680;20.074;2023-03-01T11:32:29;97970.44;;;13.29;40.69
34205;BME280;20471;49.680;20.074;2023-03-01T11:35:05;97963.81;;;13.40;40.81
34205;BME280;20471;49.680;20.074;2023-03-01T11:37:40;97960.59;;;13.59;40.58
34205;BME280;20471;49.680;20.074;2023-03-01T11:40:22;97966.21;;;13.70;40.45
34205;BME280;20471;49.680;20.074;2023-03-01T11:50:57;97961.88;;;13.61;38.17
34205;BME280;20471;49.680;20.074;2023-03-01T11:56:07;97965.63;;;14.15;37.96
34205;BME280;20471;49.680;20.074;2023-03-01T12:03:51;97960.77;;;14.80;37.24
34205;BME280;20471;49.680;20.074;2023-03-01T12:06:24;97953.55;;;14.86;36.55
34205;BME280;20471;49.680;20.074;2023-03-01T12:11:35;97944.59;;;14.53;36.06
34205;BME280;20471;49.680;20.074;2023-03-01T12:14:13;97943.89;;;14.31;35.84
34205;BME280;20471;49.680;20.074;2023-03-01T12:27:12;97921.34;;;14.02;36.38
34205;BME280;20471;49.680;20.074;2023-03-01T12:35:07;97919.92;;;14.09;36.77
34205;BME280;20471;49.680;20.074;2023-03-01T12:38:19;97920.52;;;14.07;36.95
34205;BME280;20471;49.680;20.074;2023-03-01T12:40:46;97920.00;;;14.10;37.27
34205;BME280;20471;49.680;20.074;2023-03-01T12:46:25;97919.99;;;14.11;36.68
34205;BME280;20471;49.680;20.074;2023-03-01T12:49:09;97920.50;;;14.03;36.83
34205;BME280;20471;49.680;20.074;2023-03-01T12:51:40;97919.86;;;14.00;37.00
34205;BME280;20471;49.680;20.074;2023-03-01T12:54:16;97918.48;;;14.02;37.36
34205;BME280;20471;49.680;20.074;2023-03-01T12:56:48;97919.27;;;14.22;37.37
34205;BME280;20471;49.680;20.074;2023-03-01T12:59:38;97917.44;;;14.26;36.77
34205;BME280;20471;49.680;20.074;2023-03-01T13:10:11;97915.46;;;14.37;37.10
34205;BME280;20471;49.680;20.074;2023-03-01T13:12:50;97908.54;;;14.47;36.52
34205;BME280;20471;49.680;20.074;2023-03-01T13:17:51;97902.38;;;14.34;36.27
34205;BME280;20471;49.680;20.074;2023-03-01T13:20:20;97899.18;;;14.26;36.47
34205;BME280;20471;49.680;20.074;2023-03-01T13:22:48;97903.34;;;14.33;36.43
34205;BME280;20471;49.680;20.074;2023-03-01T13:25:27;97901.23;;;14.41;36.37
34205;BME280;20471;49.680;20.074;2023-03-01T13:30:43;97897.95;;;14.48;35.71
34205;BME280;20471;49.680;20.074;2023-03-01T13:33:37;97890.65;;;14.37;35.98
34205;BME280;20471;49.680;20.074;2023-03-01T13:36:00;97888.45;;;14.21;35.86
34205;BME280;20471;49.680;20.074;2023-03-01T13:38:38;97888.63;;;14.12;35.96
34205;BME280;20471;49.680;20.074;2023-03-01T13:41:07;97892.80;;;14.01;35.17
34205;BME280;20471;49.680;20.074;2023-03-01T13:43:36;97889.81;;;13.64;35.58
34205;BME280;20471;49.680;20.074;2023-03-01T13:46:18;97885.90;;;13.50;36.05
34205;BME280;20471;49.680;20.074;2023-03-01T13:48:49;97887.21;;;13.41;35.81
34205;BME280;20471;49.680;20.074;2023-03-01T13:51:23;97888.72;;;13.30;36.41
34205;BME280;20471;49.680;20.074;2023-03-01T13:53:53;97884.34;;;13.38;36.63
34205;BME280;20471;49.680;20.074;2023-03-01T13:56:24;97881.80;;;13.46;36.41
34205;BME280;20471;49.680;20.074;2023-03-01T13:59:03;97878.82;;;13.49;36.53
34205;BME280;20471;49.680;20.074;2023-03-01T14:01:33;97878.73;;;13.57;36.55
34205;BME280;20471;49.680;20.074;2023-03-01T14:04:02;97877.01;;;13.58;36.30
34205;BME280;20471;49.680;20.074;2023-03-01T14:06:32;97879.19;;;13.50;36.38
34205;BME280;20471;49.680;20.074;2023-03-01T14:09:16;97882.23;;;13.51;36.73
34205;BME280;20471;49.680;20.074;2023-03-01T14:14:19;97883.08;;;13.50;36.54
34205;BME280;20471;49.680;20.074;2023-03-01T14:19:28;97879.78;;;13.26;36.21
34205;BME280;20471;49.680;20.074;2023-03-01T14:24:47;97874.81;;;13.05;36.26
34205;BME280;20471;49.680;20.074;2023-03-01T14:27:16;97872.15;;;12.94;36.17
34205;BME280;20471;49.680;20.074;2023-03-01T14:29:53;97869.10;;;12.88;36.00
34205;BME280;20471;49.680;20.074;2023-03-01T14:32:24;97869.80;;;12.78;35.91
34205;BME280;20471;49.680;20.074;2023-03-01T14:34:52;97870.73;;;12.59;35.78
34205;BME280;20471;49.680;20.074;2023-03-01T14:37:29;97865.93;;;12.45;35.98
34205;BME280;20471;49.680;20.074;2023-03-01T14:39:58;97865.49;;;12.37;35.87
34205;BME280;20471;49.680;20.074;2023-03-01T14:42:31;97867.94;;;12.29;35.51
34205;BME280;20471;49.680;20.074;2023-03-01T14:45:02;97865.49;;;12.16;35.38